createdAt,value
2022-08-18T00:02:17.515Z,24.38
2022-08-18T00:04:49.195Z,23.91
2022-08-18T00:07:21.432Z,23.86
2022-08-18T00:09:49.590Z,23.05
2022-08-18T00:12:24.250Z,23.51
2022-08-18T00:14:52.699Z,23.53
2022-08-18T00:17:20.462Z,23.20
2022-08-18T00:19:48.542Z,22.83
2022-08-18T00:22:19.642Z,22.99
2022-08-18T00:24:53.019Z,22.99
2022-08-18T00:27:28.638Z,23.08
2022-08-18T00:29:59.944Z,23.69
2022-08-18T00:32:34.184Z,23.91
2022-08-18T00:35:18.567Z,24.13
2022-08-18T00:37:47.182Z,24.04
2022-08-18T00:40:21.058Z,24.03
2022-08-18T00:42:52.704Z,23.53
2022-08-18T00:45:25.432Z,23.29
2022-08-18T00:47:54.010Z,23.03
2022-08-18T00:51:00.866Z,23.44
2022-08-18T00:53:33.457Z,22.64
2022-08-18T00:56:06.953Z,22.64
2022-08-18T00:58:50.942Z,22.55
2022-08-18T01:01:23.403Z,22.54
2022-08-18T01:03:54.456Z,22.08
2022-08-18T01:06:39.839Z,22.19
2022-08-18T01:09:08.815Z,22.31
2022-08-18T01:11:38.260Z,22.80
2022-08-18T01:14:08.561Z,22.69
2022-08-18T01:16:57.403Z,23.28
2022-08-18T01:19:45.318Z,23.57
2022-08-18T01:22:23.030Z,24.11
2022-08-18T01:25:10.608Z,24.28
2022-08-18T01:27:39.116Z,24.32
2022-08-18T01:30:11.898Z,24.01
2022-08-18T01:32:41.681Z,23.68
2022-08-18T01:35:10.686Z,23.04
2022-08-18T01:37:38.507Z,23.20
2022-08-18T01:41:22.319Z,23.64
2022-08-18T01:42:56.908Z,23.69
2022-08-18T01:45:24.938Z,23.30
2022-08-18T01:47:52.314Z,22.65
2022-08-18T01:50:19.965Z,23.22
2022-08-18T01:52:47.816Z,22.60
2022-08-18T01:55:15.314Z,23.22
2022-08-18T01:57:45.113Z,23.70
2022-08-18T02:00:16.144Z,23.76
2022-08-18T02:02:43.959Z,22.88
2022-08-18T02:05:16.424Z,23.36
2022-08-18T02:07:44.643Z,23.38
2022-08-18T02:10:12.569Z,23.07
2022-08-18T02:12:44.371Z,23.63
2022-08-18T02:15:12.387Z,23.50
2022-08-18T02:17:42.370Z,23.98
2022-08-18T02:20:13.627Z,22.50
2022-08-18T02:22:41.793Z,22.27
2022-08-18T02:25:10.137Z,21.89
2022-08-18T02:27:38.143Z,22.53
2022-08-18T02:30:09.177Z,21.61
2022-08-18T02:32:36.777Z,21.48
2022-08-18T02:35:06.403Z,21.37
2022-08-18T02:37:42.179Z,22.03
2022-08-18T02:40:15.207Z,22.06
2022-08-18T02:42:44.916Z,22.90
2022-08-18T02:45:13.734Z,23.30
2022-08-18T02:47:41.291Z,23.30
2022-08-18T02:50:11.898Z,22.95
2022-08-18T02:52:40.588Z,22.02
2022-08-18T02:55:09.042Z,21.77
2022-08-18T02:57:36.653Z,22.12
2022-08-18T03:00:04.728Z,22.62
2022-08-18T03:02:32.426Z,22.78
2022-08-18T03:04:59.914Z,21.88
2022-08-18T03:07:27.580Z,21.72
2022-08-18T03:09:54.977Z,21.29
2022-08-18T03:12:22.400Z,21.00
2022-08-18T03:14:50.249Z,21.20
2022-08-18T03:17:17.677Z,21.41
2022-08-18T03:19:46.792Z,21.84
2022-08-18T03:22:27.590Z,21.89
2022-08-18T03:24:58.057Z,22.21
2022-08-18T03:27:26.282Z,22.66
2022-08-18T03:29:53.742Z,22.74
2022-08-18T03:32:21.279Z,23.00
2022-08-18T03:34:49.019Z,23.05
2022-08-18T03:37:16.444Z,22.65
2022-08-18T03:39:43.988Z,21.86
2022-08-18T03:42:11.823Z,22.09
2022-08-18T03:44:39.548Z,21.93
2022-08-18T03:47:10.926Z,22.29
2022-08-18T03:49:39.306Z,21.64
2022-08-18T03:52:10.583Z,21.68
2022-08-18T03:54:39.248Z,22.37
2022-08-18T03:59:56.468Z,21.85
2022-08-18T04:02:24.183Z,21.58
2022-08-18T04:04:51.953Z,21.69
2022-08-18T04:07:19.515Z,21.79
2022-08-18T04:09:47.146Z,22.39
2022-08-18T04:12:16.569Z,22.60
2022-08-18T04:14:48.459Z,22.67
2022-08-18T04:17:23.365Z,23.11
2022-08-18T04:19:52.583Z,22.19
2022-08-18T04:22:20.666Z,22.72
2022-08-18T04:24:50.377Z,23.20
2022-08-18T04:27:19.355Z,23.49
2022-08-18T04:29:47.410Z,23.31
2022-08-18T04:32:15.204Z,23.20
2022-08-18T04:34:42.624Z,22.56
2022-08-18T04:37:10.944Z,22.84
2022-08-18T04:39:38.544Z,22.97
2022-08-18T04:42:06.185Z,23.11
2022-08-18T04:44:35.400Z,23.13
2022-08-18T04:47:02.920Z,22.90
2022-08-18T04:49:32.061Z,22.29
2022-08-18T04:52:36.588Z,22.92
2022-08-18T04:55:06.558Z,23.29
2022-08-18T04:57:35.187Z,23.17
2022-08-18T05:00:05.820Z,23.18
2022-08-18T05:02:33.636Z,23.61
2022-08-18T05:05:04.540Z,23.48
2022-08-18T05:07:32.508Z,23.91
2022-08-18T05:09:59.922Z,23.83
2022-08-18T05:12:28.896Z,23.96
2022-08-18T05:14:59.109Z,24.19
2022-08-18T05:17:30.634Z,24.16
2022-08-18T05:20:00.229Z,24.25
2022-08-18T05:22:31.161Z,24.24
2022-08-18T05:27:45.272Z,24.65
2022-08-18T05:30:15.214Z,24.78
2022-08-18T05:32:48.593Z,25.20
2022-08-18T05:35:25.539Z,24.86
2022-08-18T05:37:59.186Z,25.22
2022-08-18T05:40:27.403Z,25.79
2022-08-18T05:42:56.109Z,25.50
2022-08-18T05:45:24.202Z,25.69
2022-08-18T05:47:57.640Z,25.77
2022-08-18T05:50:26.561Z,26.04
2022-08-18T05:52:58.478Z,26.22
2022-08-18T05:56:09.388Z,26.35
2022-08-18T05:58:40.582Z,26.14
2022-08-18T06:01:15.507Z,26.43
2022-08-18T06:03:56.376Z,26.33
2022-08-18T06:06:26.314Z,26.58
2022-08-18T06:09:16.525Z,27.09
2022-08-18T06:11:44.482Z,26.92
2022-08-18T06:14:13.505Z,26.88
2022-08-18T06:16:56.445Z,27.17
2022-08-18T06:19:49.542Z,27.19
2022-08-18T06:22:31.438Z,27.28
2022-08-18T06:25:11.714Z,27.26
2022-08-18T06:27:51.704Z,27.28
2022-08-18T06:30:23.619Z,27.42
2022-08-18T06:33:01.118Z,27.41
2022-08-18T06:35:39.760Z,27.63
2022-08-18T06:38:32.795Z,27.50
2022-08-18T06:41:09.043Z,27.60
2022-08-18T06:44:09.489Z,27.65
2022-08-18T06:47:00.514Z,27.72
2022-08-18T06:49:46.692Z,27.74
2022-08-18T06:52:26.446Z,27.79
2022-08-18T06:54:56.078Z,28.17
2022-08-18T06:57:34.774Z,28.20
2022-08-18T07:00:09.779Z,28.37
2022-08-18T07:03:00.727Z,28.07
2022-08-18T07:05:33.088Z,28.22
2022-08-18T07:08:10.721Z,28.52
2022-08-18T07:10:49.494Z,28.35
2022-08-18T07:13:29.998Z,28.33
2022-08-18T07:16:17.317Z,29.13
2022-08-18T07:18:48.327Z,29.27
2022-08-18T07:21:31.056Z,29.78
2022-08-18T07:24:23.754Z,29.91
2022-08-18T07:27:04.623Z,30.97
2022-08-18T07:29:35.634Z,31.75
2022-08-18T07:32:15.499Z,32.65
2022-08-18T07:34:53.687Z,33.99
2022-08-18T07:37:33.298Z,35.06
2022-08-18T07:40:45.265Z,36.14
2022-08-18T07:43:18.308Z,37.49
2022-08-18T07:45:46.720Z,36.98
2022-08-18T07:51:17.189Z,37.56
2022-08-18T07:53:59.711Z,38.55
2022-08-18T07:56:40.028Z,38.62
2022-08-18T07:59:19.592Z,39.49
2022-08-18T08:02:24.729Z,40.30
2022-08-18T08:05:37.218Z,40.26
2022-08-18T08:08:19.138Z,40.78
2022-08-18T08:11:11.230Z,40.80
2022-08-18T08:13:56.481Z,40.72
2022-08-18T08:16:53.563Z,40.95
2022-08-18T08:20:01.245Z,41.39
2022-08-18T08:22:49.843Z,40.51
2022-08-18T08:26:04.713Z,40.86
2022-08-18T08:28:45.110Z,40.59
2022-08-18T08:31:38.971Z,39.76
2022-08-18T08:34:33.420Z,39.81
2022-08-18T08:37:04.542Z,40.31
2022-08-18T08:39:37.807Z,39.89
2022-08-18T08:42:31.629Z,39.63
2022-08-18T08:45:04.749Z,39.30
2022-08-18T08:47:44.452Z,40.18
2022-08-18T08:50:20.264Z,39.92
2022-08-18T08:52:56.690Z,39.43
2022-08-18T08:55:27.705Z,39.93
2022-08-18T08:58:01.074Z,38.72
2022-08-18T09:00:29.612Z,37.95
2022-08-18T09:03:30.086Z,38.46
2022-08-18T09:06:20.274Z,37.66
2022-08-18T09:09:06.349Z,37.76
2022-08-18T09:11:46.316Z,37.07
2022-08-18T09:14:26.131Z,37.67
2022-08-18T09:17:30.041Z,37.49
2022-08-18T09:20:27.897Z,37.42
2022-08-18T09:23:20.004Z,37.17
2022-08-18T09:25:52.052Z,37.04
2022-08-18T09:28:29.105Z,36.95
2022-08-18T09:31:02.517Z,37.11
2022-08-18T09:33:34.485Z,37.07
2022-08-18T09:36:43.760Z,37.21
2022-08-18T09:39:54.737Z,37.23
2022-08-18T09:42:48.621Z,37.09
2022-08-18T09:45:33.510Z,37.31
2022-08-18T09:48:25.286Z,37.04
2022-08-18T09:51:17.798Z,37.11
2022-08-18T09:53:54.117Z,37.52
2022-08-18T09:59:37.305Z,37.37
2022-08-18T10:02:14.070Z,37.66
2022-08-18T10:04:51.206Z,38.11
2022-08-18T10:11:02.316Z,37.94
2022-08-18T10:13:49.621Z,38.50
2022-08-18T10:20:25.907Z,38.37
2022-08-18T10:22:57.299Z,38.43
2022-08-18T10:25:41.896Z,39.00
2022-08-18T10:28:12.752Z,38.96
2022-08-18T10:30:56.249Z,39.16
2022-08-18T10:33:59.671Z,39.00
2022-08-18T10:36:45.287Z,38.26
2022-08-18T10:39:16.922Z,39.17
2022-08-18T10:42:11.022Z,39.37
2022-08-18T10:44:43.265Z,39.59
2022-08-18T10:47:25.123Z,39.71
2022-08-18T10:50:07.255Z,39.59
2022-08-18T10:52:51.065Z,39.23
2022-08-18T10:55:47.888Z,39.69
2022-08-18T10:58:42.552Z,39.70
2022-08-18T11:01:24.875Z,38.32
2022-08-18T11:04:00.315Z,38.48
2022-08-18T11:06:49.241Z,38.06
2022-08-18T11:09:28.732Z,38.41
2022-08-18T11:12:01.935Z,39.06
2022-08-18T11:14:51.845Z,39.32
2022-08-18T11:17:40.669Z,39.66
2022-08-18T11:20:12.169Z,40.02
2022-08-18T11:22:51.995Z,40.20
2022-08-18T11:25:24.258Z,40.16
2022-08-18T11:27:53.095Z,40.36
2022-08-18T11:30:21.328Z,40.69
2022-08-18T11:33:01.280Z,40.60
2022-08-18T11:35:51.066Z,40.21
2022-08-18T11:38:23.597Z,40.25
2022-08-18T11:41:14.341Z,39.23
2022-08-18T11:43:46.809Z,39.64
2022-08-18T11:46:29.368Z,40.02
2022-08-18T11:49:01.010Z,40.64
2022-08-18T11:51:32.391Z,39.40
2022-08-18T11:54:15.453Z,38.92
2022-08-18T11:56:44.345Z,39.85
2022-08-18T11:59:52.244Z,39.76
2022-08-18T12:02:17.250Z,39.51
2022-08-18T12:04:50.516Z,39.84
2022-08-18T12:07:27.839Z,40.15
2022-08-18T12:13:08.130Z,40.12
2022-08-18T12:15:46.596Z,39.80
2022-08-18T12:18:26.374Z,39.45
2022-08-18T12:20:58.594Z,40.48
2022-08-18T12:23:26.708Z,40.88
2022-08-18T12:25:54.117Z,40.94
2022-08-18T12:28:22.398Z,41.20
2022-08-18T12:30:56.071Z,41.26
2022-08-18T12:33:25.294Z,40.44
2022-08-18T12:36:05.991Z,39.63
2022-08-18T12:38:36.491Z,38.76
2022-08-18T12:41:05.420Z,38.68
2022-08-18T12:46:21.325Z,38.97
2022-08-18T12:48:53.103Z,39.84
2022-08-18T12:51:24.688Z,39.82
2022-08-18T12:54:00.021Z,38.43
2022-08-18T12:56:31.068Z,38.37
2022-08-18T12:59:01.284Z,39.38
2022-08-18T13:01:33.470Z,39.26
2022-08-18T13:04:11.087Z,38.90
2022-08-18T13:06:59.332Z,39.33
2022-08-18T13:09:35.015Z,39.77
2022-08-18T13:12:16.693Z,38.93
2022-08-18T13:14:45.522Z,39.09
2022-08-18T13:17:32.891Z,38.92
2022-08-18T13:20:11.238Z,38.58
2022-08-18T13:22:41.395Z,37.96
2022-08-18T13:25:12.533Z,38.08
2022-08-18T13:27:43.595Z,38.34
2022-08-18T13:30:31.427Z,39.42
2022-08-18T13:33:05.564Z,38.84
2022-08-18T13:35:52.097Z,38.23
2022-08-18T13:38:25.983Z,38.38
2022-08-18T13:40:58.179Z,38.79
2022-08-18T13:43:32.365Z,39.17
2022-08-18T13:46:06.057Z,39.03
2022-08-18T13:48:33.851Z,39.82
2022-08-18T13:51:02.344Z,39.80
2022-08-18T13:53:31.617Z,40.01
2022-08-18T13:56:00.062Z,39.68
2022-08-18T13:58:29.188Z,39.46
2022-08-18T14:01:22.676Z,40.13
2022-08-18T14:03:48.184Z,39.93
2022-08-18T14:06:22.110Z,40.28
2022-08-18T14:08:52.721Z,40.34
2022-08-18T14:11:23.656Z,40.28
2022-08-18T14:13:54.679Z,40.13
2022-08-18T14:16:26.783Z,40.14
2022-08-18T14:19:14.016Z,39.94
2022-08-18T14:22:11.217Z,38.87
2022-08-18T14:25:00.224Z,38.45
2022-08-18T14:27:34.906Z,38.64
2022-08-18T14:30:11.545Z,39.14
2022-08-18T14:32:48.941Z,39.55
2022-08-18T14:35:33.361Z,39.61
2022-08-18T14:38:07.171Z,38.80
2022-08-18T14:40:41.789Z,38.41
2022-08-18T14:43:16.099Z,38.44
2022-08-18T14:45:48.837Z,38.05
2022-08-18T14:48:19.065Z,38.99
2022-08-18T14:50:53.058Z,39.02
2022-08-18T14:53:22.818Z,39.36
2022-08-18T14:55:52.667Z,38.96
2022-08-18T14:58:24.404Z,39.24
2022-08-18T15:00:53.853Z,39.40
2022-08-18T15:03:28.328Z,39.57
2022-08-18T15:06:04.576Z,39.60
2022-08-18T15:08:35.285Z,39.41
2022-08-18T15:11:06.154Z,39.72
2022-08-18T15:13:42.228Z,39.43
2022-08-18T15:16:13.801Z,38.80
2022-08-18T15:18:43.468Z,38.63
2022-08-18T15:21:38.416Z,38.58
2022-08-18T15:24:26.039Z,38.83
2022-08-18T15:26:57.472Z,38.36
2022-08-18T15:29:28.973Z,38.28
2022-08-18T15:32:05.665Z,38.66
2022-08-18T15:34:47.342Z,38.01
2022-08-18T15:37:24.433Z,37.62
2022-08-18T15:40:02.832Z,37.64
2022-08-18T15:42:30.961Z,37.91
2022-08-18T15:45:11.537Z,38.14
2022-08-18T15:47:43.186Z,38.31
2022-08-18T15:50:25.651Z,38.24
2022-08-18T15:52:57.728Z,37.49
2022-08-18T15:55:28.658Z,37.61
2022-08-18T15:57:58.255Z,37.62
2022-08-18T16:00:28.479Z,37.85
2022-08-18T16:03:00.192Z,38.39
2022-08-18T16:05:33.583Z,38.65
2022-08-18T16:08:01.462Z,38.63
2022-08-18T16:10:32.376Z,38.84
2022-08-18T16:13:01.668Z,38.77
2022-08-18T16:15:30.892Z,38.50
2022-08-18T16:17:59.379Z,38.42
2022-08-18T16:20:29.355Z,38.00
2022-08-18T16:22:59.916Z,38.38
2022-08-18T16:25:27.583Z,38.76
2022-08-18T16:27:55.587Z,38.79
2022-08-18T16:30:25.749Z,38.74
2022-08-18T16:32:53.450Z,37.96
2022-08-18T16:35:23.161Z,38.23
2022-08-18T16:37:50.971Z,37.89
2022-08-18T16:40:19.364Z,38.07
2022-08-18T16:42:47.239Z,38.24
2022-08-18T16:45:22.011Z,38.03
2022-08-18T16:47:49.652Z,37.46
2022-08-18T16:50:20.085Z,38.01
2022-08-18T16:52:47.929Z,37.88
2022-08-18T16:55:15.371Z,38.05
2022-08-18T16:58:02.855Z,37.99
2022-08-18T17:00:55.077Z,37.99
2022-08-18T17:03:42.889Z,37.77
2022-08-18T17:06:13.976Z,37.64
2022-08-18T17:08:42.622Z,37.50
2022-08-18T17:11:13.868Z,37.41
2022-08-18T17:13:42.650Z,37.23
2022-08-18T17:16:11.028Z,37.06
2022-08-18T17:18:38.798Z,36.68
2022-08-18T17:21:07.905Z,36.46
2022-08-18T17:23:38.735Z,36.74
2022-08-18T17:26:10.076Z,36.36
2022-08-18T17:28:50.758Z,36.38
2022-08-18T17:31:22.631Z,35.91
2022-08-18T17:33:52.146Z,35.77
2022-08-18T17:36:23.570Z,35.88
2022-08-18T17:38:54.723Z,35.80
2022-08-18T17:41:23.686Z,35.66
2022-08-18T17:43:52.452Z,35.75
2022-08-18T17:46:27.391Z,35.64
2022-08-18T17:49:04.017Z,35.58
2022-08-18T17:51:43.486Z,35.51
2022-08-18T17:54:19.174Z,35.29
2022-08-18T17:56:52.742Z,35.30
2022-08-18T17:59:45.740Z,34.93
2022-08-18T18:02:28.557Z,34.34
2022-08-18T18:04:58.454Z,34.30
2022-08-18T18:07:54.816Z,34.60
2022-08-18T18:10:27.578Z,34.58
2022-08-18T18:13:34.275Z,34.61
2022-08-18T18:16:20.949Z,33.78
2022-08-18T18:18:59.877Z,33.17
2022-08-18T18:22:00.356Z,33.18
2022-08-18T18:24:24.029Z,33.44
2022-08-18T18:26:52.350Z,33.83
2022-08-18T18:29:37.387Z,33.53
2022-08-18T18:32:24.380Z,33.54
2022-08-18T18:35:31.352Z,33.01
2022-08-18T18:38:05.435Z,33.44
2022-08-18T18:40:37.296Z,33.96
2022-08-18T18:43:39.432Z,33.29
2022-08-18T18:46:18.355Z,33.40
2022-08-18T18:49:01.770Z,33.36
2022-08-18T18:51:38.408Z,32.64
2022-08-18T18:54:15.026Z,32.22
2022-08-18T18:56:49.437Z,31.50
2022-08-18T18:59:28.913Z,31.28
2022-08-18T19:02:34.498Z,31.25
2022-08-18T19:05:35.218Z,30.85
2022-08-18T19:08:20.847Z,31.26
2022-08-18T19:11:01.649Z,31.11
2022-08-18T19:13:34.955Z,31.15
2022-08-18T19:16:24.349Z,31.08
2022-08-18T19:19:38.009Z,31.03
2022-08-18T19:22:27.397Z,31.17
2022-08-18T19:25:21.844Z,31.20
2022-08-18T19:28:07.729Z,30.76
2022-08-18T19:30:39.500Z,30.38
2022-08-18T19:33:07.762Z,30.52
2022-08-18T19:35:58.746Z,30.28
2022-08-18T19:38:37.024Z,30.33
2022-08-18T19:41:11.001Z,29.95
2022-08-18T19:44:04.725Z,29.20
2022-08-18T19:46:45.306Z,28.39
2022-08-18T19:49:31.614Z,28.35
2022-08-18T19:52:46.666Z,28.16
2022-08-18T19:55:18.112Z,28.26
2022-08-18T19:58:01.695Z,28.37
2022-08-18T20:00:56.351Z,28.67
2022-08-18T20:03:33.848Z,28.94
2022-08-18T20:06:33.620Z,29.17
2022-08-18T20:09:21.348Z,28.50
2022-08-18T20:11:52.535Z,29.31
2022-08-18T20:14:20.343Z,28.35
2022-08-18T20:17:09.613Z,29.24
2022-08-18T20:19:43.207Z,29.35
2022-08-18T20:22:32.260Z,29.71
2022-08-18T20:25:17.612Z,29.56
2022-08-18T20:27:58.472Z,29.79
2022-08-18T20:30:47.332Z,29.95
2022-08-18T20:33:24.209Z,30.02
2022-08-18T20:36:03.973Z,30.07
2022-08-18T20:38:37.475Z,30.12
2022-08-18T20:41:50.576Z,30.06
2022-08-18T20:44:47.959Z,29.68
2022-08-18T20:47:34.311Z,29.36
2022-08-18T20:50:31.655Z,29.93
2022-08-18T20:53:19.187Z,30.15
2022-08-18T20:56:43.470Z,30.14
2022-08-18T20:59:20.158Z,29.57
2022-08-18T21:02:00.044Z,29.42
2022-08-18T21:04:48.704Z,29.27
2022-08-18T21:07:36.224Z,29.11
2022-08-18T21:10:20.635Z,29.98
2022-08-18T21:12:54.997Z,30.34
2022-08-18T21:15:26.156Z,30.24
2022-08-18T21:18:17.666Z,30.08
2022-08-18T21:20:50.941Z,30.14
2022-08-18T21:23:35.699Z,30.22
2022-08-18T21:26:07.270Z,30.42
2022-08-18T21:28:36.777Z,30.23
2022-08-18T21:31:29.200Z,30.49
2022-08-18T21:34:33.382Z,30.38
2022-08-18T21:37:06.458Z,30.17
2022-08-18T21:39:35.247Z,30.15
2022-08-18T21:42:02.953Z,30.30
2022-08-18T21:44:44.549Z,29.94
2022-08-18T21:47:21.500Z,30.25
2022-08-18T21:50:14.850Z,30.26
2022-08-18T21:52:56.945Z,30.36
2022-08-18T21:55:39.853Z,30.40
2022-08-18T21:58:19.772Z,30.23
2022-08-18T22:01:23.124Z,30.29
2022-08-18T22:03:59.579Z,30.28
2022-08-18T22:06:28.551Z,30.14
2022-08-18T22:09:30.411Z,30.16
2022-08-18T22:12:35.280Z,30.19
2022-08-18T22:15:23.072Z,30.06
2022-08-18T22:17:51.796Z,30.23
2022-08-18T22:20:38.278Z,30.27
2022-08-18T22:23:43.111Z,30.09
2022-08-18T22:26:17.957Z,30.01
2022-08-18T22:29:00.558Z,30.10
2022-08-18T22:31:31.511Z,30.08
2022-08-18T22:34:06.354Z,30.02
2022-08-18T22:36:40.415Z,29.92
2022-08-18T22:39:10.204Z,30.02
2022-08-18T22:41:38.735Z,29.82
2022-08-18T22:44:07.112Z,29.91
2022-08-18T22:46:35.352Z,29.95
2022-08-18T22:49:04.510Z,29.81
2022-08-18T22:51:32.914Z,29.76
2022-08-18T22:54:00.358Z,29.77
2022-08-18T22:56:34.958Z,29.82
2022-08-18T22:59:16.032Z,29.89
2022-08-18T23:01:48.132Z,29.82
2022-08-18T23:04:21.174Z,29.99
2022-08-18T23:06:52.455Z,30.08
2022-08-18T23:09:25.974Z,30.04
2022-08-18T23:11:55.826Z,29.72
2022-08-18T23:14:23.697Z,29.59
2022-08-18T23:16:51.311Z,29.66
2022-08-18T23:19:20.387Z,29.08
2022-08-18T23:21:48.725Z,29.29
2022-08-18T23:24:21.581Z,29.63
2022-08-18T23:26:49.978Z,29.21
2022-08-18T23:29:19.844Z,29.47
2022-08-18T23:31:48.467Z,29.27
2022-08-18T23:34:20.074Z,29.56
2022-08-18T23:36:55.543Z,29.33
2022-08-18T23:39:25.290Z,29.15
2022-08-18T23:41:53.732Z,29.41
2022-08-18T23:44:23.942Z,29.31
2022-08-18T23:46:58.054Z,29.05
2022-08-18T23:49:30.464Z,29.07
2022-08-18T23:51:59.288Z,28.92
2022-08-18T23:54:30.616Z,28.96
2022-08-18T23:56:58.267Z,29.14
2022-08-18T23:59:27.136Z,29.06
